createdAt,value
2018-05-23T00:01:59.560Z,13.50
2018-05-23T00:04:26.976Z,12.67
2018-05-23T00:06:54.392Z,12.07
2018-05-23T00:09:21.812Z,12.87
2018-05-23T00:11:49.371Z,12.97
2018-05-23T00:14:16.795Z,13.90
2018-05-23T00:16:44.581Z,13.37
2018-05-23T00:19:11.987Z,12.67
2018-05-23T00:21:39.404Z,12.90
2018-05-23T00:24:06.843Z,12.43
2018-05-23T00:26:34.256Z,12.23
2018-05-23T00:29:01.672Z,12.83
2018-05-23T00:31:29.091Z,11.30
2018-05-23T00:33:56.504Z,13.43
2018-05-23T00:36:24.166Z,13.63
2018-05-23T00:38:51.703Z,12.10
2018-05-23T00:41:19.146Z,13.87
2018-05-23T00:43:46.753Z,13.77
2018-05-23T00:46:14.173Z,13.43
2018-05-23T00:48:41.588Z,12.50
2018-05-23T00:51:09.277Z,12.10
2018-05-23T00:53:36.684Z,14.13
2018-05-23T00:56:04.100Z,13.73
2018-05-23T00:58:31.524Z,14.57
2018-05-23T01:00:58.932Z,14.43
2018-05-23T01:03:26.384Z,15.80
2018-05-23T01:05:53.837Z,12.60
2018-05-23T01:08:21.412Z,12.70
2018-05-23T01:10:48.828Z,14.20
2018-05-23T01:13:16.235Z,14.23
2018-05-23T01:15:43.676Z,13.90
2018-05-23T01:18:11.401Z,12.13
2018-05-23T01:20:38.808Z,14.17
2018-05-23T01:23:06.261Z,14.70
2018-05-23T01:25:33.683Z,15.20
2018-05-23T01:28:01.096Z,14.67
2018-05-23T01:30:28.532Z,14.60
2018-05-23T01:32:55.972Z,14.23
2018-05-23T01:35:23.391Z,13.33
2018-05-23T01:37:50.804Z,14.67
2018-05-23T01:40:18.320Z,11.83
2018-05-23T01:42:45.729Z,12.90
2018-05-23T01:45:13.144Z,12.73
2018-05-23T01:47:40.584Z,14.53
2018-05-23T01:50:07.989Z,14.50
2018-05-23T01:52:35.409Z,15.03
2018-05-23T01:55:02.841Z,14.37
2018-05-23T01:57:30.268Z,13.93
2018-05-23T01:59:57.679Z,12.90
2018-05-23T02:02:25.100Z,11.53
2018-05-23T02:04:52.519Z,13.83
2018-05-23T02:07:19.936Z,13.63
2018-05-23T02:09:47.359Z,12.77
2018-05-23T02:12:14.780Z,12.87
2018-05-23T02:14:42.200Z,12.63
2018-05-23T02:17:09.631Z,12.77
2018-05-23T02:19:37.064Z,13.53
2018-05-23T02:22:04.484Z,14.47
2018-05-23T02:24:31.912Z,14.77
2018-05-23T02:26:59.339Z,14.10
2018-05-23T02:29:26.752Z,13.87
2018-05-23T02:31:54.164Z,14.50
2018-05-23T02:34:21.592Z,15.00
2018-05-23T02:36:49.009Z,13.70
2018-05-23T02:39:16.424Z,13.53
2018-05-23T02:41:43.856Z,12.33
2018-05-23T02:44:11.272Z,13.60
2018-05-23T02:46:38.709Z,13.07
2018-05-23T02:49:06.136Z,13.93
2018-05-23T02:51:33.557Z,12.33
2018-05-23T02:54:00.976Z,13.37
2018-05-23T02:56:28.484Z,12.83
2018-05-23T02:58:55.892Z,13.97
2018-05-23T03:01:23.396Z,13.43
2018-05-23T03:03:50.814Z,15.17
2018-05-23T03:06:18.233Z,12.83
2018-05-23T03:08:45.661Z,13.87
2018-05-23T03:11:13.074Z,14.23
2018-05-23T03:13:40.493Z,12.60
2018-05-23T03:16:07.919Z,13.00
2018-05-23T03:18:35.339Z,15.17
2018-05-23T03:21:02.752Z,16.53
2018-05-23T03:23:30.188Z,14.67
2018-05-23T03:25:57.609Z,14.53
2018-05-23T03:28:25.017Z,14.10
2018-05-23T03:30:52.769Z,13.53
2018-05-23T03:33:20.184Z,14.20
2018-05-23T03:35:47.592Z,14.83
2018-05-23T03:38:15.013Z,16.07
2018-05-23T03:40:42.427Z,14.83
2018-05-23T03:43:09.861Z,15.20
2018-05-23T03:45:37.284Z,14.53
2018-05-23T03:48:04.696Z,14.33
2018-05-23T03:50:32.524Z,14.07
2018-05-23T03:52:59.933Z,12.40
2018-05-23T03:55:27.348Z,13.90
2018-05-23T03:57:54.779Z,13.53
2018-05-23T04:00:34.049Z,14.47
2018-05-23T04:03:13.626Z,14.87
2018-05-23T04:05:53.167Z,13.67
2018-05-23T04:08:20.589Z,14.20
2018-05-23T04:10:48.018Z,16.00
2018-05-23T04:13:15.435Z,15.60
2018-05-23T04:15:42.851Z,15.30
2018-05-23T04:18:10.543Z,13.80
2018-05-23T04:20:37.943Z,16.67
2018-05-23T04:23:05.361Z,15.30
2018-05-23T04:25:32.846Z,15.00
2018-05-23T04:28:00.303Z,15.47
2018-05-23T04:30:27.710Z,14.77
2018-05-23T04:32:55.134Z,14.30
2018-05-23T04:35:22.548Z,13.23
2018-05-23T04:37:49.968Z,15.87
2018-05-23T04:40:17.401Z,14.57
2018-05-23T04:42:44.841Z,13.50
2018-05-23T04:45:12.266Z,13.57
2018-05-23T04:47:39.713Z,14.80
2018-05-23T04:50:07.130Z,13.47
2018-05-23T04:52:34.544Z,12.63
2018-05-23T04:55:01.968Z,12.93
2018-05-23T04:57:29.396Z,12.53
2018-05-23T04:59:56.812Z,12.70
2018-05-23T05:02:24.256Z,13.80
2018-05-23T05:04:51.672Z,13.00
2018-05-23T05:07:19.093Z,13.80
2018-05-23T05:09:46.572Z,12.57
2018-05-23T05:12:13.985Z,11.83
2018-05-23T05:14:41.396Z,11.80
2018-05-23T05:17:09.098Z,13.00
2018-05-23T05:19:36.524Z,13.40
2018-05-23T05:22:03.937Z,12.40
2018-05-23T05:24:31.659Z,11.40
2018-05-23T05:26:59.064Z,13.13
2018-05-23T05:29:26.484Z,11.93
2018-05-23T05:31:53.967Z,11.80
2018-05-23T05:34:21.356Z,11.63
2018-05-23T05:36:48.752Z,11.70
2018-05-23T05:39:16.183Z,11.43
2018-05-23T05:41:43.604Z,12.00
2018-05-23T05:44:11.036Z,11.90
2018-05-23T05:46:38.629Z,11.50
2018-05-23T05:49:06.056Z,10.97
2018-05-23T05:51:33.486Z,12.20
2018-05-23T05:54:00.933Z,11.07
2018-05-23T05:56:28.386Z,10.90
2018-05-23T05:58:55.787Z,11.53
2018-05-23T06:01:23.193Z,12.77
2018-05-23T06:03:50.641Z,18.33
2018-05-23T06:06:18.292Z,12.00
2018-05-23T06:08:45.706Z,12.07
2018-05-23T06:11:13.124Z,10.17
2018-05-23T06:13:40.564Z,8.20
2018-05-23T06:16:07.968Z,9.18
2018-05-23T06:18:35.403Z,12.80
2018-05-23T06:21:02.830Z,10.00
2018-05-23T06:23:30.240Z,11.52
2018-05-23T06:25:57.965Z,7.55
2018-05-23T06:28:25.383Z,7.72
2018-05-23T06:30:52.789Z,8.48
2018-05-23T06:33:20.563Z,10.23
2018-05-23T06:35:47.982Z,7.12
2018-05-23T06:38:15.396Z,7.37
2018-05-23T06:40:42.955Z,8.77
2018-05-23T06:43:10.379Z,8.00
2018-05-23T06:45:37.776Z,9.18
2018-05-23T06:48:05.209Z,8.90
2018-05-23T06:50:32.624Z,8.60
2018-05-23T06:53:00.025Z,7.75
2018-05-23T06:55:27.475Z,7.18
2018-05-23T06:57:54.883Z,8.02
2018-05-23T07:00:22.286Z,8.45
2018-05-23T07:02:49.882Z,7.22
2018-05-23T07:05:17.290Z,13.57
2018-05-23T07:07:44.702Z,7.45
2018-05-23T07:10:12.263Z,11.18
2018-05-23T07:12:39.669Z,9.25
2018-05-23T07:15:07.079Z,9.77
2018-05-23T07:17:34.508Z,9.02
2018-05-23T07:20:01.953Z,7.80
2018-05-23T07:22:29.388Z,9.18
2018-05-23T07:24:56.788Z,7.75
2018-05-23T07:27:24.188Z,8.43
2018-05-23T07:29:51.640Z,8.68
2018-05-23T07:32:19.211Z,8.25
2018-05-23T07:34:46.643Z,7.57
2018-05-23T07:37:14.061Z,7.32
2018-05-23T07:39:41.493Z,10.95
2018-05-23T07:42:08.900Z,7.95
2018-05-23T07:44:36.321Z,10.48
2018-05-23T07:47:03.731Z,7.05
2018-05-23T07:49:31.174Z,6.07
2018-05-23T07:51:58.576Z,9.05
2018-05-23T07:54:26.244Z,6.95
2018-05-23T07:56:53.672Z,11.82
2018-05-23T07:59:21.089Z,9.40
2018-05-23T08:01:48.519Z,12.85
2018-05-23T08:04:15.935Z,8.95
2018-05-23T08:06:43.507Z,6.57
2018-05-23T08:09:10.909Z,7.85
2018-05-23T08:11:38.325Z,5.53
2018-05-23T08:14:05.754Z,7.75
2018-05-23T08:16:33.164Z,5.20
2018-05-23T08:19:00.591Z,7.97
2018-05-23T08:21:28.024Z,9.65
2018-05-23T08:23:55.692Z,7.75
2018-05-23T08:26:23.217Z,7.57
2018-05-23T08:28:50.569Z,10.13
2018-05-23T08:31:17.992Z,7.28
2018-05-23T08:33:45.406Z,9.30
2018-05-23T08:36:12.979Z,9.85
2018-05-23T08:38:40.473Z,6.07
2018-05-23T08:41:07.840Z,5.87
2018-05-23T08:43:35.280Z,7.10
2018-05-23T08:46:02.726Z,9.30
2018-05-23T08:48:30.452Z,9.20
2018-05-23T08:50:57.855Z,6.45
2018-05-23T08:53:25.261Z,8.65
2018-05-23T08:55:52.684Z,8.40
2018-05-23T08:58:20.089Z,6.72
2018-05-23T09:00:47.500Z,10.15
2018-05-23T09:03:14.924Z,7.93
2018-05-23T09:05:42.325Z,13.68
2018-05-23T09:08:09.736Z,13.75
2018-05-23T09:10:37.177Z,12.37
2018-05-23T09:13:04.592Z,10.32
2018-05-23T09:15:32.025Z,10.52
2018-05-23T09:17:59.436Z,13.75
2018-05-23T09:20:26.857Z,9.38
2018-05-23T09:22:54.436Z,7.15
2018-05-23T09:25:21.943Z,7.43
2018-05-23T09:27:49.275Z,9.18
2018-05-23T09:30:16.967Z,11.23
2018-05-23T09:32:44.444Z,10.25
2018-05-23T09:35:11.865Z,10.00
2018-05-23T09:37:39.301Z,8.32
2018-05-23T09:40:06.732Z,6.85
2018-05-23T09:42:34.139Z,9.45
2018-05-23T09:45:01.564Z,7.68
2018-05-23T09:47:28.989Z,5.93
2018-05-23T09:49:56.517Z,10.02
2018-05-23T09:52:24.175Z,10.05
2018-05-23T09:54:51.596Z,9.88
2018-05-23T09:57:19.002Z,7.37
2018-05-23T09:59:46.491Z,8.23
2018-05-23T10:02:13.891Z,8.07
2018-05-23T10:04:41.295Z,9.35
2018-05-23T10:07:08.741Z,7.93
2018-05-23T10:09:36.223Z,7.18
2018-05-23T10:12:03.617Z,9.35
2018-05-23T10:14:31.196Z,8.45
2018-05-23T10:16:58.609Z,11.20
2018-05-23T10:19:26.083Z,10.75
2018-05-23T10:21:53.522Z,8.75
2018-05-23T10:24:21.012Z,7.53
2018-05-23T10:26:48.899Z,8.35
2018-05-23T10:29:16.460Z,7.97
2018-05-23T10:31:43.899Z,5.55
2018-05-23T10:34:11.319Z,8.20
2018-05-23T10:36:38.776Z,11.45
2018-05-23T10:39:06.204Z,7.80
2018-05-23T10:41:33.576Z,8.40
2018-05-23T10:44:01.371Z,12.10
2018-05-23T10:46:28.776Z,7.32
2018-05-23T10:48:56.195Z,11.85
2018-05-23T10:51:23.656Z,9.55
2018-05-23T10:53:51.091Z,7.03
2018-05-23T10:56:18.467Z,9.30
2018-05-23T10:58:45.889Z,8.45
2018-05-23T11:01:13.299Z,8.50
2018-05-23T11:03:40.877Z,7.87
2018-05-23T11:06:08.288Z,9.13
2018-05-23T11:08:35.704Z,7.10
2018-05-23T11:11:03.120Z,9.43
2018-05-23T11:13:30.542Z,10.23
2018-05-23T11:15:58.023Z,11.00
2018-05-23T11:18:25.447Z,7.70
2018-05-23T11:20:52.859Z,6.78
2018-05-23T11:23:20.290Z,6.50
2018-05-23T11:25:47.691Z,10.80
2018-05-23T11:28:15.108Z,5.32
2018-05-23T11:30:42.529Z,9.07
2018-05-23T11:33:09.955Z,7.60
2018-05-23T11:35:37.357Z,9.18
2018-05-23T11:38:04.785Z,9.73
2018-05-23T11:40:32.205Z,9.32
2018-05-23T11:42:59.631Z,7.40
2018-05-23T11:45:27.053Z,6.43
2018-05-23T11:47:54.511Z,7.15
2018-05-23T11:50:22.272Z,10.02
2018-05-23T11:52:49.687Z,6.03
2018-05-23T11:55:17.107Z,6.68
2018-05-23T11:57:44.553Z,6.03
2018-05-23T12:00:11.964Z,5.75
2018-05-23T12:02:39.401Z,6.50
2018-05-23T12:05:06.842Z,8.57
2018-05-23T12:07:34.256Z,5.60
2018-05-23T12:10:01.707Z,6.45
2018-05-23T12:12:29.111Z,7.12
2018-05-23T12:14:56.539Z,7.60
2018-05-23T12:17:23.419Z,10.50
2018-05-23T12:19:50.820Z,7.55
2018-05-23T12:22:18.247Z,8.95
2018-05-23T12:24:45.664Z,5.65
2018-05-23T12:27:13.081Z,7.32
2018-05-23T12:29:40.512Z,6.22
2018-05-23T12:32:07.937Z,6.85
2018-05-23T12:34:35.360Z,4.85
2018-05-23T12:37:02.913Z,5.75
2018-05-23T12:39:30.348Z,9.52
2018-05-23T12:41:57.759Z,10.60
2018-05-23T12:44:25.224Z,10.60
2018-05-23T12:46:52.616Z,6.22
2018-05-23T12:49:20.032Z,11.10
2018-05-23T12:51:47.473Z,6.45
2018-05-23T12:54:14.884Z,10.30
2018-05-23T12:56:42.371Z,8.13
2018-05-23T12:59:09.769Z,6.45
2018-05-23T13:01:37.175Z,4.55
2018-05-23T13:04:04.620Z,7.85
2018-05-23T13:06:32.026Z,7.00
2018-05-23T13:08:59.438Z,6.22
2018-05-23T13:11:26.843Z,8.35
2018-05-23T13:13:54.279Z,5.65
2018-05-23T13:16:21.687Z,8.55
2018-05-23T13:18:49.104Z,7.10
2018-05-23T13:21:16.511Z,8.45
2018-05-23T13:23:43.952Z,7.32
2018-05-23T13:26:11.383Z,5.93
2018-05-23T13:28:38.796Z,5.55
2018-05-23T13:31:06.212Z,7.22
2018-05-23T13:33:33.632Z,6.80
2018-05-23T13:36:01.064Z,6.87
2018-05-23T13:38:28.480Z,6.72
2018-05-23T13:40:55.905Z,6.43
2018-05-23T13:43:23.320Z,8.57
2018-05-23T13:45:50.741Z,9.63
2018-05-23T13:48:18.171Z,5.40
2018-05-23T13:50:45.585Z,6.35
2018-05-23T13:53:12.995Z,8.88
2018-05-23T13:55:40.417Z,8.35
2018-05-23T13:58:07.835Z,4.85
2018-05-23T14:00:35.245Z,4.72
2018-05-23T14:03:02.672Z,7.10
2018-05-23T14:05:30.083Z,5.43
2018-05-23T14:07:57.504Z,6.85
2018-05-23T14:10:24.924Z,6.70
2018-05-23T14:12:52.395Z,5.10
2018-05-23T14:15:19.808Z,5.68
2018-05-23T14:17:47.286Z,8.95
2018-05-23T14:20:14.708Z,7.18
2018-05-23T14:22:42.158Z,7.00
2018-05-23T14:25:09.559Z,8.45
2018-05-23T14:27:36.971Z,6.05
2018-05-23T14:30:04.423Z,4.15
2018-05-23T14:32:31.847Z,7.37
2018-05-23T14:34:59.269Z,8.23
2018-05-23T14:37:26.674Z,5.25
2018-05-23T14:39:54.106Z,3.80
2018-05-23T14:42:21.512Z,4.50
2018-05-23T14:44:48.981Z,10.43
2018-05-23T14:47:16.427Z,4.62
2018-05-23T14:49:43.844Z,7.70
2018-05-23T14:52:12.063Z,7.50
2018-05-23T14:54:39.476Z,7.53
2018-05-23T14:57:06.880Z,4.15
2018-05-23T14:59:34.303Z,9.02
2018-05-23T15:02:01.711Z,4.07
2018-05-23T15:04:29.135Z,3.90
2018-05-23T15:06:56.561Z,6.15
2018-05-23T15:09:23.990Z,6.68
2018-05-23T15:11:51.384Z,8.32
2018-05-23T15:14:19.243Z,6.60
2018-05-23T15:16:47.368Z,5.30
2018-05-23T15:19:14.776Z,6.53
2018-05-23T15:21:42.199Z,4.45
2018-05-23T15:24:09.602Z,4.05
2018-05-23T15:26:37.228Z,6.72
2018-05-23T15:29:05.097Z,4.60
2018-05-23T15:31:32.874Z,5.32
2018-05-23T15:34:00.176Z,5.37
2018-05-23T15:36:27.594Z,5.07
2018-05-23T15:38:55.002Z,4.72
2018-05-23T15:41:22.724Z,5.12
2018-05-23T15:43:50.281Z,4.40
2018-05-23T15:46:17.691Z,6.50
2018-05-23T15:48:45.108Z,3.97
2018-05-23T15:51:12.565Z,4.18
2018-05-23T15:53:39.924Z,7.30
2018-05-23T15:56:07.358Z,6.80
2018-05-23T15:58:34.762Z,10.70
2018-05-23T16:01:02.179Z,6.82
2018-05-23T16:03:29.594Z,4.65
2018-05-23T16:05:57.028Z,6.80
2018-05-23T16:08:24.456Z,7.30
2018-05-23T16:10:51.875Z,7.78
2018-05-23T16:13:19.321Z,4.45
2018-05-23T16:15:46.736Z,8.65
2018-05-23T16:18:14.174Z,5.10
2018-05-23T16:20:41.613Z,8.07
2018-05-23T16:23:09.004Z,5.32
2018-05-23T16:25:36.571Z,4.07
2018-05-23T16:28:03.983Z,11.80
2018-05-23T16:30:31.430Z,4.68
2018-05-23T16:32:58.862Z,7.50
2018-05-23T16:35:26.269Z,5.37
2018-05-23T16:37:53.694Z,4.65
2018-05-23T16:40:21.105Z,8.48
2018-05-23T16:42:48.564Z,4.65
2018-05-23T16:45:15.988Z,7.82
2018-05-23T16:47:43.401Z,6.28
2018-05-23T16:50:10.828Z,6.53
2018-05-23T16:52:38.261Z,5.03
2018-05-23T16:55:05.691Z,9.40
2018-05-23T16:57:33.100Z,4.82
2018-05-23T17:00:00.544Z,8.13
2018-05-23T17:02:27.960Z,6.03
2018-05-23T17:04:55.368Z,6.32
2018-05-23T17:07:22.780Z,5.10
2018-05-23T17:09:50.191Z,5.93
2018-05-23T17:12:17.609Z,5.80
2018-05-23T17:14:45.020Z,4.37
2018-05-23T17:17:12.439Z,8.38
2018-05-23T17:19:39.870Z,7.30
2018-05-23T17:22:07.320Z,6.05
2018-05-23T17:24:34.737Z,5.93
2018-05-23T17:27:02.145Z,4.95
2018-05-23T17:29:29.563Z,5.00
2018-05-23T17:31:56.997Z,6.40
2018-05-23T17:34:24.411Z,4.32
2018-05-23T17:36:51.832Z,8.80
2018-05-23T17:39:19.255Z,5.35
2018-05-23T17:41:46.680Z,5.60
2018-05-23T17:44:14.207Z,5.57
2018-05-23T17:46:41.631Z,6.95
2018-05-23T17:49:09.040Z,7.40
2018-05-23T17:51:36.597Z,4.50
2018-05-23T17:54:04.028Z,5.28
2018-05-23T17:56:31.437Z,6.47
2018-05-23T17:58:58.873Z,8.82
2018-05-23T18:01:26.297Z,5.37
2018-05-23T18:03:53.698Z,6.45
2018-05-23T18:06:21.199Z,4.43
2018-05-23T18:08:48.607Z,8.23
2018-05-23T18:11:16.071Z,8.32
2018-05-23T18:13:43.433Z,5.47
2018-05-23T18:16:10.851Z,4.60
2018-05-23T18:18:38.291Z,5.05
2018-05-23T18:21:05.716Z,4.65
2018-05-23T18:23:33.173Z,5.45
2018-05-23T18:26:00.585Z,6.62
2018-05-23T18:28:28.024Z,4.93
2018-05-23T18:30:55.438Z,7.60
2018-05-23T18:33:22.864Z,8.02
2018-05-23T18:35:50.281Z,5.43
2018-05-23T18:38:17.787Z,4.97
2018-05-23T18:40:45.200Z,4.43
2018-05-23T18:43:12.657Z,11.38
2018-05-23T18:45:40.064Z,5.55
2018-05-23T18:48:07.477Z,5.30
2018-05-23T18:50:34.915Z,6.80
2018-05-23T18:53:02.330Z,10.38
2018-05-23T18:55:29.812Z,6.95
2018-05-23T18:57:57.228Z,5.30
2018-05-23T19:00:24.628Z,5.50
2018-05-23T19:02:52.049Z,8.13
2018-05-23T19:05:19.676Z,5.28
2018-05-23T19:07:47.040Z,6.10
2018-05-23T19:10:14.465Z,6.40
2018-05-23T19:12:41.888Z,7.03
2018-05-23T19:15:09.316Z,5.45
2018-05-23T19:17:36.755Z,4.53
2018-05-23T19:20:04.199Z,6.00
2018-05-23T19:22:31.616Z,7.53
2018-05-23T19:24:59.037Z,5.97
2018-05-23T19:27:26.632Z,5.80
2018-05-23T19:29:54.049Z,8.82
2018-05-23T19:32:21.481Z,6.72
2018-05-23T19:34:48.928Z,6.07
2018-05-23T19:37:16.352Z,5.68
2018-05-23T19:39:43.845Z,7.40
2018-05-23T19:42:11.190Z,8.87
2018-05-23T19:44:38.623Z,5.55
2018-05-23T19:47:06.028Z,7.57
2018-05-23T19:49:33.755Z,5.40
2018-05-23T19:52:01.161Z,8.18
2018-05-23T19:54:28.569Z,8.07
2018-05-23T19:56:56.219Z,4.77
2018-05-23T19:59:23.638Z,5.20
2018-05-23T20:01:51.059Z,4.20
2018-05-23T20:04:18.877Z,4.13
2018-05-23T20:06:46.286Z,8.13
2018-05-23T20:09:13.740Z,5.97
2018-05-23T20:11:41.167Z,3.97
2018-05-23T20:14:08.662Z,8.60
2018-05-23T20:16:36.022Z,4.23
2018-05-23T20:19:03.432Z,4.50
2018-05-23T20:21:30.983Z,3.50
2018-05-23T20:23:58.404Z,6.00
2018-05-23T20:26:25.835Z,5.73
2018-05-23T20:28:53.492Z,3.40
2018-05-23T20:31:20.913Z,4.90
2018-05-23T20:33:48.368Z,6.57
2018-05-23T20:36:15.785Z,6.13
2018-05-23T20:38:43.193Z,2.93
2018-05-23T20:41:10.624Z,4.87
2018-05-23T20:43:38.032Z,5.37
2018-05-23T20:46:05.445Z,4.40
2018-05-23T20:48:32.876Z,3.93
2018-05-23T20:51:00.292Z,3.53
2018-05-23T20:53:27.714Z,5.53
2018-05-23T20:55:55.129Z,3.27
2018-05-23T20:58:22.635Z,3.20
2018-05-23T21:00:49.972Z,3.47
2018-05-23T21:03:17.486Z,4.40
2018-05-23T21:05:44.989Z,3.90
2018-05-23T21:08:12.361Z,4.23
2018-05-23T21:10:39.765Z,3.80
2018-05-23T21:13:07.189Z,3.47
2018-05-23T21:15:34.632Z,4.63
2018-05-23T21:18:02.028Z,3.10
2018-05-23T21:20:29.449Z,5.67
2018-05-23T21:22:56.906Z,9.23
2018-05-23T21:25:24.330Z,6.80
2018-05-23T21:27:51.839Z,4.53
2018-05-23T21:30:19.223Z,5.63
2018-05-23T21:32:46.649Z,2.90
2018-05-23T21:35:14.052Z,4.93
2018-05-23T21:37:41.812Z,5.03
2018-05-23T21:40:09.215Z,4.73
2018-05-23T21:42:36.629Z,4.63
2018-05-23T21:45:04.054Z,9.20
2018-05-23T21:47:31.465Z,8.00
2018-05-23T21:49:58.908Z,5.10
2018-05-23T21:52:26.346Z,5.70
2018-05-23T21:54:53.847Z,4.37
2018-05-23T21:57:21.258Z,4.20
2018-05-23T21:59:48.714Z,8.13
2018-05-23T22:02:16.120Z,5.33
2018-05-23T22:04:43.561Z,4.47
2018-05-23T22:07:10.965Z,3.53
2018-05-23T22:09:38.393Z,3.00
2018-05-23T22:12:05.842Z,5.90
2018-05-23T22:14:33.246Z,6.57
2018-05-23T22:17:00.919Z,3.73
2018-05-23T22:19:28.328Z,4.00
2018-05-23T22:21:55.756Z,3.20
2018-05-23T22:24:23.270Z,4.80
2018-05-23T22:26:50.633Z,2.77
2018-05-23T22:29:18.064Z,3.87
2018-05-23T22:31:45.503Z,4.33
2018-05-23T22:34:12.903Z,4.17
2018-05-23T22:36:40.484Z,2.60
2018-05-23T22:39:07.891Z,3.93
2018-05-23T22:41:35.325Z,7.43
2018-05-23T22:44:02.825Z,5.93
2018-05-23T22:46:30.238Z,4.57
2018-05-23T22:48:57.658Z,4.80
2018-05-23T22:51:25.372Z,5.80
2018-05-23T22:53:52.784Z,3.43
2018-05-23T22:56:20.190Z,2.93
2018-05-23T22:58:47.611Z,6.23
2018-05-23T23:01:15.027Z,3.57
2018-05-23T23:03:42.442Z,3.07
2018-05-23T23:06:09.843Z,3.67
2018-05-23T23:08:37.334Z,4.93
2018-05-23T23:11:04.757Z,2.67
2018-05-23T23:13:32.161Z,4.30
2018-05-23T23:15:59.572Z,3.23
2018-05-23T23:18:27.167Z,3.77
2018-05-23T23:20:54.569Z,2.93
2018-05-23T23:23:21.983Z,3.37
2018-05-23T23:25:49.765Z,2.53
2018-05-23T23:28:17.181Z,3.10
2018-05-23T23:30:44.590Z,2.63
2018-05-23T23:33:12.018Z,4.20
2018-05-23T23:35:39.504Z,5.13
2018-05-23T23:38:06.931Z,3.07
2018-05-23T23:40:34.339Z,3.70
2018-05-23T23:43:01.749Z,3.17
2018-05-23T23:45:29.528Z,2.47
2018-05-23T23:47:56.948Z,3.17
2018-05-23T23:50:24.365Z,2.73
2018-05-23T23:52:52.158Z,3.27
2018-05-23T23:55:19.564Z,4.37
2018-05-23T23:57:46.993Z,2.60
